Time,TemperatureF,DewpointF,PressureIn,WindDirection,WindDirectionDegrees,WindSpeedMPH,WindSpeedGustMPH,Humidity,HourlyPrecipIn,Conditions,Clouds,dailyrainin,SolarRadiationWatts/m^2,SoftwareType,DateUTC
2013-04-30 00:00:00,58.9,57.8,30.03,NW,319,0.0,0.0,96,0.00,,,1.27,0,Wunderground v.1.15,2013-04-30 04:00:00,
2013-04-30 00:05:00,58.8,57.7,30.03,NW,319,0.0,0.0,96,0.00,,,0.00,0,Wunderground v.1.15,2013-04-30 04:05:00,
2013-04-30 00:10:00,58.6,57.5,30.03,NW,319,0.0,0.0,96,0.00,,,0.00,0,Wunderground v.1.15,2013-04-30 04:10:00,
2013-04-30 00:15:00,58.6,57.5,30.03,NW,319,0.0,0.0,96,0.00,,,0.00,0,Wunderground v.1.15,2013-04-30 04:15:00,
2013-04-30 00:20:00,58.5,57.4,30.03,NW,319,0.0,0.0,96,0.00,,,0.00,0,Wunderground v.1.15,2013-04-30 04:20:00,
2013-04-30 00:25:00,58.3,57.2,30.03,NW,319,0.0,0.0,96,0.00,,,0.00,0,Wunderground v.1.15,2013-04-30 04:25:00,
2013-04-30 00:35:00,58.4,57.6,30.03,NW,319,0.0,0.0,97,0.00,,,0.00,0,Wunderground v.1.15,2013-04-30 04:35:00,
2013-04-30 00:40:00,58.6,57.8,30.03,NW,319,0.0,0.0,97,0.00,,,0.00,0,Wunderground v.1.15,2013-04-30 04:40:00,
2013-04-30 00:45:00,58.7,57.9,30.03,NW,319,0.0,0.0,97,0.00,,,0.00,0,Wunderground v.1.15,2013-04-30 04:45:00,
2013-04-30 00:50:00,58.6,57.8,30.02,NW,319,0.0,0.0,97,0.00,,,0.00,0,Wunderground v.1.15,2013-04-30 04:50:00,
2013-04-30 00:55:00,58.3,57.2,30.02,NW,319,0.0,0.0,96,0.00,,,0.00,0,Wunderground v.1.15,2013-04-30 04:55:00,
2013-04-30 01:05:00,57.9,56.8,30.02,NW,319,0.0,0.0,96,0.00,,,0.00,0,Wunderground v.1.15,2013-04-30 05:05:00,
2013-04-30 01:10:00,57.8,56.7,30.02,NW,319,0.0,0.0,96,0.00,,,0.00,0,Wunderground v.1.15,2013-04-30 05:10:00,
2013-04-30 01:15:00,57.8,57.0,30.02,NW,319,0.0,0.0,97,0.00,,,0.00,0,Wunderground v.1.15,2013-04-30 05:15:00,
2013-04-30 01:20:00,57.8,57.0,30.02,SSE,159,0.0,3.0,97,0.00,,,0.00,0,Wunderground v.1.15,2013-04-30 05:20:00,
2013-04-30 01:30:00,58.0,57.2,30.02,SSE,159,0.0,0.0,97,0.00,,,0.00,0,Wunderground v.1.15,2013-04-30 05:30:00,
2013-04-30 01:35:00,57.9,57.1,30.02,SSE,159,0.0,0.0,97,0.00,,,0.00,0,Wunderground v.1.15,2013-04-30 05:35:00,
2013-04-30 01:40:00,57.8,57.0,30.02,SSE,159,0.0,0.0,97,0.00,,,0.00,0,Wunderground v.1.15,2013-04-30 05:40:00,
2013-04-30 01:45:00,57.8,57.0,30.02,SSE,159,0.0,0.0,97,0.00,,,0.00,0,Wunderground v.1.15,2013-04-30 05:45:00,
2013-04-30 01:50:00,57.8,57.0,30.02,SSE,159,0.0,0.0,97,0.00,,,0.00,0,Wunderground v.1.15,2013-04-30 05:50:00,
2013-04-30 02:00:00,58.1,57.3,30.02,SSE,159,0.0,0.0,97,0.00,,,0.00,0,Wunderground v.1.15,2013-04-30 06:00:00,
2013-04-30 02:05:00,58.2,57.4,30.02,SSE,159,0.0,0.0,97,0.00,,,0.00,0,Wunderground v.1.15,2013-04-30 06:05:00,
2013-04-30 02:10:00,58.3,57.5,30.03,SSE,159,0.0,0.0,97,0.00,,,0.00,0,Wunderground v.1.15,2013-04-30 06:10:00,
2013-04-30 02:15:00,58.4,57.6,30.02,SSE,159,0.0,0.0,97,0.00,,,0.00,0,Wunderground v.1.15,2013-04-30 06:15:00,
2013-04-30 02:20:00,58.5,57.7,30.02,SSE,159,0.0,0.0,97,0.00,,,0.00,0,Wunderground v.1.15,2013-04-30 06:20:00,
2013-04-30 02:25:00,58.4,57.6,30.02,SSE,159,0.0,0.0,97,0.00,,,0.00,0,Wunderground v.1.15,2013-04-30 06:25:00,
2013-04-30 02:35:00,58.5,57.7,30.02,SSE,159,0.0,0.0,97,0.00,,,0.00,0,Wunderground v.1.15,2013-04-30 06:35:00,
2013-04-30 02:40:00,58.4,57.6,30.02,SSE,159,0.0,0.0,97,0.00,,,0.00,0,Wunderground v.1.15,2013-04-30 06:40:00,
2013-04-30 02:45:00,58.4,57.6,30.02,SSE,159,0.0,0.0,97,0.00,,,0.00,0,Wunderground v.1.15,2013-04-30 06:45:00,
2013-04-30 02:50:00,58.4,57.6,30.02,SSE,159,0.0,0.0,97,0.00,,,0.00,0,Wunderground v.1.15,2013-04-30 06:50:00,
2013-04-30 02:55:00,58.5,57.7,30.02,NNE,24,0.0,0.0,97,0.00,,,0.00,0,Wunderground v.1.15,2013-04-30 06:55:00,
2013-04-30 03:05:00,58.6,58.0,30.03,NW,316,0.0,0.0,98,0.00,,,0.00,0,Wunderground v.1.15,2013-04-30 07:05:00,
2013-04-30 03:10:00,58.5,57.9,30.02,NW,316,0.0,0.0,98,0.00,,,0.00,0,Wunderground v.1.15,2013-04-30 07:10:00,
2013-04-30 03:15:00,58.5,57.9,30.02,NNW,337,1.0,1.0,98,0.00,,,0.00,0,Wunderground v.1.15,2013-04-30 07:15:00,
2013-04-30 03:20:00,58.4,57.8,30.03,NNW,338,1.0,1.0,98,0.00,,,0.00,0,Wunderground v.1.15,2013-04-30 07:20:00,
2013-04-30 03:25:00,58.3,57.7,30.03,NNW,338,0.0,1.0,98,0.00,,,0.00,0,Wunderground v.1.15,2013-04-30 07:25:00,
2013-04-30 03:35:00,58.2,57.4,30.03,NNW,338,0.0,0.0,97,0.00,,,0.00,0,Wunderground v.1.15,2013-04-30 07:35:00,
2013-04-30 03:40:00,58.2,57.4,30.03,NNW,338,0.0,0.0,97,0.00,,,0.00,0,Wunderground v.1.15,2013-04-30 07:40:00,
2013-04-30 03:45:00,58.1,57.5,30.03,NNW,338,0.0,0.0,98,0.00,,,0.00,0,Wunderground v.1.15,2013-04-30 07:45:00,
2013-04-30 03:50:00,58.1,57.5,30.03,NNW,338,0.0,0.0,98,0.00,,,0.00,0,Wunderground v.1.15,2013-04-30 07:50:00,
2013-04-30 03:55:00,58.0,57.4,30.03,NNW,338,0.0,0.0,98,0.00,,,0.00,0,Wunderground v.1.15,2013-04-30 07:55:00,
2013-04-30 04:05:00,57.9,57.3,30.03,NNW,340,0.0,0.0,98,0.00,,,0.00,0,Wunderground v.1.15,2013-04-30 08:05:00,
2013-04-30 04:10:00,57.9,57.3,30.03,NNW,348,0.0,5.0,98,0.00,,,0.00,0,Wunderground v.1.15,2013-04-30 08:10:00,
2013-04-30 04:15:00,57.9,57.3,30.04,NNW,345,1.0,5.0,98,0.00,,,0.00,0,Wunderground v.1.15,2013-04-30 08:15:00,
2013-04-30 04:20:00,57.9,57.3,30.04,NNW,345,1.0,1.0,98,0.00,,,0.00,0,Wunderground v.1.15,2013-04-30 08:20:00,
2013-04-30 04:25:00,57.9,57.3,30.04,NNW,345,0.0,1.0,98,0.00,,,0.00,0,Wunderground v.1.15,2013-04-30 08:25:00,
2013-04-30 04:35:00,57.8,57.2,30.04,NNW,341,0.0,0.0,98,0.00,,,0.00,0,Wunderground v.1.15,2013-04-30 08:35:00,
2013-04-30 04:40:00,57.9,57.3,30.05,NNW,340,0.0,0.0,98,0.00,,,0.00,0,Wunderground v.1.15,2013-04-30 08:40:00,
2013-04-30 04:45:00,57.9,57.3,30.05,NNW,340,0.0,0.0,98,0.00,,,0.00,0,Wunderground v.1.15,2013-04-30 08:45:00,
2013-04-30 04:50:00,57.9,57.3,30.05,NNW,340,0.0,0.0,98,0.00,,,0.00,0,Wunderground v.1.15,2013-04-30 08:50:00,
2013-04-30 05:00:00,58.0,57.4,30.05,North,350,1.0,1.0,98,0.00,,,0.00,0,Wunderground v.1.15,2013-04-30 09:00:00,
2013-04-30 05:05:00,58.0,57.4,30.05,North,350,0.0,1.0,98,0.00,,,0.00,0,Wunderground v.1.15,2013-04-30 09:05:00,
2013-04-30 05:10:00,58.0,57.4,30.05,North,350,0.0,0.0,98,0.00,,,0.00,0,Wunderground v.1.15,2013-04-30 09:10:00,
2013-04-30 05:15:00,58.1,57.5,30.05,North,350,0.0,0.0,98,0.00,,,0.00,0,Wunderground v.1.15,2013-04-30 09:15:00,
2013-04-30 05:20:00,58.0,57.4,30.05,North,355,0.0,0.0,98,0.00,,,0.00,0,Wunderground v.1.15,2013-04-30 09:20:00,
2013-04-30 05:30:00,58.1,57.5,30.06,NNW,342,0.0,0.0,98,0.00,,,0.00,0,Wunderground v.1.15,2013-04-30 09:30:00,
2013-04-30 05:35:00,58.1,57.5,30.06,NNW,336,0.0,2.0,98,0.00,,,0.00,0,Wunderground v.1.15,2013-04-30 09:35:00,
2013-04-30 05:40:00,58.1,57.5,30.06,North,355,1.0,1.0,98,0.00,,,0.00,0,Wunderground v.1.15,2013-04-30 09:40:00,
2013-04-30 05:45:00,58.0,57.4,30.06,North,355,1.0,1.0,98,0.00,,,0.00,0,Wunderground v.1.15,2013-04-30 09:45:00,
2013-04-30 05:50:00,58.0,57.4,30.07,North,355,0.0,0.0,98,0.00,,,0.00,0,Wunderground v.1.15,2013-04-30 09:50:00,
2013-04-30 05:55:00,58.1,57.5,30.07,North,355,0.0,0.0,98,0.00,,,0.00,0,Wunderground v.1.15,2013-04-30 09:55:00,
2013-04-30 06:05:00,58.0,57.4,30.07,North,351,0.0,0.0,98,0.00,,,0.00,0,Wunderground v.1.15,2013-04-30 10:05:00,
2013-04-30 06:10:00,58.0,57.4,30.07,North,351,0.0,0.0,98,0.00,,,0.00,0,Wunderground v.1.15,2013-04-30 10:10:00,
2013-04-30 06:15:00,57.9,57.3,30.07,North,351,0.0,0.0,98,0.00,,,0.00,0,Wunderground v.1.15,2013-04-30 10:15:00,
2013-04-30 06:20:00,57.9,57.3,30.07,North,351,0.0,0.0,98,0.00,,,0.00,0,Wunderground v.1.15,2013-04-30 10:20:00,
2013-04-30 06:25:00,57.9,57.3,30.07,NNW,345,0.0,0.0,98,0.00,,,0.00,0,Wunderground v.1.15,2013-04-30 10:25:00,
2013-04-30 06:35:00,58.0,57.4,30.08,NNW,345,0.0,0.0,98,0.00,,,0.00,0,Wunderground v.1.15,2013-04-30 10:35:00,
2013-04-30 06:40:00,58.0,57.4,30.08,NNW,345,0.0,0.0,98,0.00,,,0.00,0,Wunderground v.1.15,2013-04-30 10:40:00,
2013-04-30 06:45:00,58.0,57.4,30.08,NNW,345,0.0,0.0,98,0.00,,,0.00,5,Wunderground v.1.15,2013-04-30 10:45:00,
2013-04-30 06:50:00,57.9,57.3,30.09,NNW,344,0.0,0.0,98,0.00,,,0.00,7,Wunderground v.1.15,2013-04-30 10:50:00,
2013-04-30 06:55:00,57.9,57.3,30.09,WSW,254,0.0,0.0,98,0.00,,,0.00,7,Wunderground v.1.15,2013-04-30 10:55:00,
2013-04-30 07:05:00,58.0,57.4,30.09,North,355,0.0,0.0,98,0.00,,,0.00,12,Wunderground v.1.15,2013-04-30 11:05:00,
2013-04-30 07:10:00,58.1,57.5,30.09,North,5,1.0,1.0,98,0.00,,,0.00,16,Wunderground v.1.15,2013-04-30 11:10:00,
2013-04-30 07:15:00,58.1,57.5,30.10,North,351,0.0,1.0,98,0.00,,,0.00,14,Wunderground v.1.15,2013-04-30 11:15:00,
2013-04-30 07:20:00,58.1,57.5,30.10,NNW,337,0.0,0.0,98,0.00,,,0.00,14,Wunderground v.1.15,2013-04-30 11:20:00,
2013-04-30 07:25:00,58.1,57.5,30.10,NNW,337,0.0,0.0,98,0.00,,,0.00,14,Wunderground v.1.15,2013-04-30 11:25:00,
2013-04-30 07:35:00,58.1,57.5,30.10,NNW,346,0.0,0.0,98,0.00,,,0.00,18,Wunderground v.1.15,2013-04-30 11:35:00,
2013-04-30 07:40:00,58.1,57.5,30.10,NNW,331,0.0,0.0,98,0.00,,,0.00,18,Wunderground v.1.15,2013-04-30 11:40:00,
2013-04-30 07:45:00,58.0,57.4,30.10,North,355,0.0,0.0,98,0.00,,,0.00,19,Wunderground v.1.15,2013-04-30 11:45:00,
2013-04-30 07:50:00,58.0,57.4,30.11,North,355,0.0,0.0,98,0.00,,,0.00,23,Wunderground v.1.15,2013-04-30 11:50:00,
2013-04-30 08:00:00,57.8,57.2,30.11,North,360,0.0,4.0,98,0.00,,,0.00,44,Wunderground v.1.15,2013-04-30 12:00:00,
2013-04-30 08:05:00,57.8,57.0,30.11,NNW,343,0.0,4.0,97,0.00,,,0.00,42,Wunderground v.1.15,2013-04-30 12:05:00,
2013-04-30 08:10:00,57.7,56.9,30.11,NNW,343,0.0,0.0,97,0.00,,,0.00,42,Wunderground v.1.15,2013-04-30 12:10:00,
2013-04-30 08:15:00,57.7,56.9,30.11,NNW,331,0.0,3.0,97,0.00,,,0.00,37,Wunderground v.1.15,2013-04-30 12:15:00,
2013-04-30 08:20:00,57.6,56.8,30.12,NNW,346,1.0,1.0,97,0.00,,,0.00,39,Wunderground v.1.15,2013-04-30 12:20:00,
2013-04-30 08:30:00,57.5,56.7,30.12,NNW,347,1.0,1.0,97,0.00,,,0.00,54,Wunderground v.1.15,2013-04-30 12:30:00,
2013-04-30 08:35:00,57.5,56.7,30.12,NW,323,1.0,2.0,97,0.00,,,0.00,62,Wunderground v.1.15,2013-04-30 12:35:00,
2013-04-30 08:40:00,57.4,56.6,30.12,NNW,344,1.0,6.0,97,0.00,,,0.00,67,Wunderground v.1.15,2013-04-30 12:40:00,
2013-04-30 08:45:00,57.4,56.6,30.12,NNW,344,2.0,6.0,97,0.00,,,0.00,60,Wunderground v.1.15,2013-04-30 12:45:00,
2013-04-30 08:50:00,57.5,56.7,30.13,NNW,331,0.0,0.0,97,0.00,,,0.00,53,Wunderground v.1.15,2013-04-30 12:50:00,
2013-04-30 09:00:00,57.5,56.4,30.13,NNE,19,1.0,1.0,96,0.00,,,0.00,90,Wunderground v.1.15,2013-04-30 13:00:00,
2013-04-30 09:05:00,57.4,56.3,30.14,NNW,342,1.0,1.0,96,0.00,,,0.00,113,Wunderground v.1.15,2013-04-30 13:05:00,
2013-04-30 09:10:00,57.4,56.3,30.14,NNW,332,0.0,0.0,96,0.00,,,0.00,120,Wunderground v.1.15,2013-04-30 13:10:00,
2013-04-30 09:15:00,57.5,56.1,30.14,NNW,333,0.0,0.0,95,0.00,,,0.00,135,Wunderground v.1.15,2013-04-30 13:15:00,
2013-04-30 09:20:00,57.6,56.2,30.14,NNW,340,0.0,3.0,95,0.00,,,0.00,146,Wunderground v.1.15,2013-04-30 13:20:00,
2013-04-30 09:25:00,57.7,56.0,30.14,NNW,339,1.0,3.0,94,0.00,,,0.00,134,Wunderground v.1.15,2013-04-30 13:25:00,
2013-04-30 09:35:00,57.9,56.2,30.14,NNW,331,1.0,4.0,94,0.00,,,0.00,121,Wunderground v.1.15,2013-04-30 13:35:00,
2013-04-30 09:40:00,58.0,56.0,30.14,North,350,1.0,1.0,93,0.00,,,0.00,153,Wunderground v.1.15,2013-04-30 13:40:00,
2013-04-30 09:45:00,58.0,56.0,30.14,North,350,1.0,1.0,93,0.00,,,0.00,144,Wunderground v.1.15,2013-04-30 13:45:00,
2013-04-30 09:50:00,58.2,55.9,30.14,North,5,0.0,0.0,92,0.00,,,0.00,192,Wunderground v.1.15,2013-04-30 13:50:00,
2013-04-30 09:55:00,58.4,56.1,30.14,NW,312,0.0,0.0,92,0.00,,,0.00,220,Wunderground v.1.15,2013-04-30 13:55:00,
2013-04-30 10:05:00,59.1,56.2,30.13,NNW,337,0.0,0.0,90,0.00,,,0.00,299,Wunderground v.1.15,2013-04-30 14:05:00,
2013-04-30 10:10:00,59.5,56.3,30.14,NW,325,1.0,4.0,89,0.00,,,0.00,322,Wunderground v.1.15,2013-04-30 14:10:00,
2013-04-30 10:15:00,59.6,56.4,30.14,NNE,19,2.0,6.0,89,0.00,,,0.00,190,Wunderground v.1.15,2013-04-30 14:15:00,
2013-04-30 10:20:00,59.5,56.3,30.14,NNW,340,4.0,5.0,89,0.00,,,0.00,158,Wunderground v.1.15,2013-04-30 14:20:00,
2013-04-30 10:25:00,59.4,56.5,30.14,NNW,342,5.0,5.0,90,0.00,,,0.00,202,Wunderground v.1.15,2013-04-30 14:25:00,
2013-04-30 10:35:00,59.7,56.1,30.14,NNW,340,4.0,5.0,88,0.00,,,0.00,290,Wunderground v.1.15,2013-04-30 14:35:00,
2013-04-30 10:40:00,60.0,56.4,30.14,NNW,340,3.0,3.0,88,0.00,,,0.00,264,Wunderground v.1.15,2013-04-30 14:40:00,
2013-04-30 10:45:00,60.3,56.4,30.14,North,355,2.0,7.0,87,0.00,,,0.00,341,Wunderground v.1.15,2013-04-30 14:45:00,
2013-04-30 10:50:00,60.7,56.8,30.14,NW,321,2.0,4.0,87,0.00,,,0.00,350,Wunderground v.1.15,2013-04-30 14:50:00,
2013-04-30 11:00:00,60.6,56.4,30.14,NNW,342,3.0,3.0,86,0.00,,,0.00,353,Wunderground v.1.15,2013-04-30 15:00:00,
2013-04-30 11:05:00,60.9,56.7,30.14,NNW,341,3.0,3.0,86,0.00,,,0.00,336,Wunderground v.1.15,2013-04-30 15:05:00,
2013-04-30 11:10:00,61.0,56.8,30.14,NNW,344,2.0,2.0,86,0.00,,,0.00,313,Wunderground v.1.15,2013-04-30 15:10:00,
2013-04-30 11:15:00,60.9,56.7,30.14,NNW,337,2.0,3.0,86,0.00,,,0.00,218,Wunderground v.1.15,2013-04-30 15:15:00,
2013-04-30 11:25:00,61.0,56.8,30.14,North,9,4.0,4.0,86,0.00,,,0.00,278,Wunderground v.1.15,2013-04-30 15:25:00,
2013-04-30 11:30:00,61.0,56.8,30.14,NNW,344,4.0,6.0,86,0.00,,,0.00,283,Wunderground v.1.15,2013-04-30 15:30:00,
2013-04-30 11:35:00,61.2,57.0,30.14,NNW,332,4.0,6.0,86,0.00,,,0.00,316,Wunderground v.1.15,2013-04-30 15:35:00,
2013-04-30 11:40:00,61.1,56.9,30.14,NNW,334,4.0,4.0,86,0.00,,,0.00,206,Wunderground v.1.15,2013-04-30 15:40:00,
2013-04-30 11:45:00,61.1,56.9,30.14,North,360,5.0,5.0,86,0.00,,,0.00,257,Wunderground v.1.15,2013-04-30 15:45:00,
2013-04-30 11:55:00,61.4,57.2,30.13,North,360,4.0,5.0,86,0.00,,,0.00,295,Wunderground v.1.15,2013-04-30 15:55:00,
2013-04-30 12:00:00,61.5,56.9,30.13,NW,326,2.0,2.0,85,0.00,,,0.00,279,Wunderground v.1.15,2013-04-30 16:00:00,
2013-04-30 12:05:00,61.3,57.1,30.13,North,355,2.0,5.0,86,0.00,,,0.00,264,Wunderground v.1.15,2013-04-30 16:05:00,
2013-04-30 12:10:00,61.5,56.9,30.13,NNW,342,3.0,3.0,85,0.00,,,0.00,325,Wunderground v.1.15,2013-04-30 16:10:00,
2013-04-30 12:15:00,61.7,57.1,30.13,NNW,336,1.0,3.0,85,0.00,,,0.00,241,Wunderground v.1.15,2013-04-30 16:15:00,
2013-04-30 12:20:00,61.8,57.2,30.13,NNW,337,1.0,3.0,85,0.00,,,0.00,267,Wunderground v.1.15,2013-04-30 16:20:00,
2013-04-30 12:30:00,62.0,57.1,30.13,North,5,4.0,4.0,84,0.00,,,0.00,325,Wunderground v.1.15,2013-04-30 16:30:00,
2013-04-30 12:35:00,62.2,57.3,30.12,NNW,342,2.0,4.0,84,0.00,,,0.00,269,Wunderground v.1.15,2013-04-30 16:35:00,
2013-04-30 12:40:00,62.4,57.2,30.12,NW,325,1.0,5.0,83,0.00,,,0.00,320,Wunderground v.1.15,2013-04-30 16:40:00,
2013-04-30 12:45:00,62.5,57.3,30.12,North,355,3.0,5.0,83,0.00,,,0.00,329,Wunderground v.1.15,2013-04-30 16:45:00,
2013-04-30 12:50:00,62.7,57.1,30.12,NNW,334,4.0,4.0,82,0.00,,,0.00,271,Wunderground v.1.15,2013-04-30 16:50:00,
2013-04-30 13:00:00,62.7,57.5,30.12,North,355,2.0,4.0,83,0.00,,,0.00,227,Wunderground v.1.15,2013-04-30 17:00:00,
2013-04-30 13:05:00,62.6,57.4,30.12,NNW,342,2.0,4.0,83,0.00,,,0.00,345,Wunderground v.1.15,2013-04-30 17:05:00,
2013-04-30 13:10:00,62.6,57.0,30.11,NNW,328,2.0,2.0,82,0.00,,,0.00,325,Wunderground v.1.15,2013-04-30 17:10:00,
2013-04-30 13:15:00,63.1,57.2,30.12,NNW,345,2.0,2.0,81,0.00,,,0.00,431,Wunderground v.1.15,2013-04-30 17:15:00,
2013-04-30 13:20:00,63.6,58.0,30.12,NNW,345,2.0,2.0,82,0.00,,,0.00,327,Wunderground v.1.15,2013-04-30 17:20:00,
2013-04-30 13:30:00,64.3,58.3,30.12,ENE,65,0.0,0.0,81,0.00,,,0.00,446,Wunderground v.1.15,2013-04-30 17:30:00,
2013-04-30 13:35:00,64.5,57.5,30.12,NNW,332,1.0,1.0,78,0.00,,,0.00,262,Wunderground v.1.15,2013-04-30 17:35:00,
2013-04-30 13:40:00,64.0,57.4,30.12,NNW,327,2.0,7.0,79,0.00,,,0.00,183,Wunderground v.1.15,2013-04-30 17:40:00,
2013-04-30 13:45:00,63.4,57.5,30.12,NNW,327,3.0,7.0,81,0.00,,,0.00,237,Wunderground v.1.15,2013-04-30 17:45:00,
2013-04-30 13:55:00,63.1,57.5,30.12,NW,325,1.0,2.0,82,0.00,,,0.00,271,Wunderground v.1.15,2013-04-30 17:55:00,
2013-04-30 14:00:00,63.4,57.8,30.12,NNW,330,1.0,1.0,82,0.00,,,0.00,248,Wunderground v.1.15,2013-04-30 18:00:00,
2013-04-30 14:05:00,64.0,58.1,30.12,North,355,0.0,1.0,81,0.00,,,0.00,200,Wunderground v.1.15,2013-04-30 18:05:00,
2013-04-30 14:10:00,64.4,58.1,30.12,NW,325,0.0,0.0,80,0.00,,,0.00,276,Wunderground v.1.15,2013-04-30 18:10:00,
2013-04-30 14:15:00,64.2,58.2,30.12,North,9,0.0,2.0,81,0.00,,,0.00,325,Wunderground v.1.15,2013-04-30 18:15:00,
2013-04-30 14:25:00,64.7,58.0,30.12,NNW,344,2.0,2.0,79,0.00,,,0.00,279,Wunderground v.1.15,2013-04-30 18:25:00,
2013-04-30 14:30:00,64.9,58.2,30.11,NNW,337,1.0,1.0,79,0.00,,,0.00,348,Wunderground v.1.15,2013-04-30 18:30:00,
2013-04-30 14:35:00,65.1,57.7,30.11,NNW,338,0.0,1.0,77,0.00,,,0.00,308,Wunderground v.1.15,2013-04-30 18:35:00,
2013-04-30 14:40:00,65.1,58.1,30.11,NNE,21,1.0,1.0,78,0.00,,,0.00,162,Wunderground v.1.15,2013-04-30 18:40:00,
2013-04-30 14:45:00,64.9,58.2,30.11,NNW,332,2.0,2.0,79,0.00,,,0.00,181,Wunderground v.1.15,2013-04-30 18:45:00,
2013-04-30 14:55:00,64.7,58.0,30.11,NNW,327,1.0,3.0,79,0.00,,,0.00,271,Wunderground v.1.15,2013-04-30 18:55:00,
2013-04-30 15:00:00,65.0,58.3,30.11,North,355,1.0,1.0,79,0.00,,,0.00,192,Wunderground v.1.15,2013-04-30 19:00:00,
2013-04-30 15:10:00,65.3,58.6,30.12,NNW,330,2.0,3.0,79,0.00,,,0.00,130,Wunderground v.1.15,2013-04-30 19:10:00,
2013-04-30 15:15:00,65.1,58.4,30.12,North,5,1.0,3.0,79,0.00,,,0.00,172,Wunderground v.1.15,2013-04-30 19:15:00,
2013-04-30 15:20:00,65.0,58.3,30.11,NNW,338,1.0,1.0,79,0.00,,,0.00,216,Wunderground v.1.15,2013-04-30 19:20:00,
2013-04-30 15:25:00,65.0,58.3,30.11,NNW,327,1.0,1.0,79,0.00,,,0.00,248,Wunderground v.1.15,2013-04-30 19:25:00,
2013-04-30 15:30:00,65.1,58.1,30.11,NNW,332,2.0,7.0,78,0.00,,,0.00,278,Wunderground v.1.15,2013-04-30 19:30:00,
2013-04-30 15:40:00,65.0,58.3,30.11,NNW,336,2.0,2.0,79,0.00,,,0.00,139,Wunderground v.1.15,2013-04-30 19:40:00,
2013-04-30 15:45:00,65.0,58.3,30.11,NNW,334,0.0,2.0,79,0.00,,,0.00,167,Wunderground v.1.15,2013-04-30 19:45:00,
2013-04-30 15:50:00,65.0,58.7,30.11,NW,319,0.0,2.0,80,0.00,,,0.00,148,Wunderground v.1.15,2013-04-30 19:50:00,
2013-04-30 15:55:00,65.0,59.0,30.11,NNW,335,1.0,2.0,81,0.00,,,0.00,97,Wunderground v.1.15,2013-04-30 19:55:00,
2013-04-30 16:00:00,64.9,58.2,30.11,NNW,343,1.0,4.0,79,0.00,,,0.00,105,Wunderground v.1.15,2013-04-30 20:00:00,
2013-04-30 16:10:00,64.7,58.4,30.11,North,355,1.0,1.0,80,0.00,,,0.00,202,Wunderground v.1.15,2013-04-30 20:10:00,
2013-04-30 16:15:00,64.7,58.4,30.11,NNW,336,1.0,1.0,80,0.00,,,0.00,250,Wunderground v.1.15,2013-04-30 20:15:00,
2013-04-30 16:20:00,64.9,58.2,30.11,NNW,334,1.0,1.0,79,0.00,,,0.00,336,Wunderground v.1.15,2013-04-30 20:20:00,
2013-04-30 16:25:00,65.2,58.2,30.11,NNW,331,1.0,5.0,78,0.00,,,0.00,478,Wunderground v.1.15,2013-04-30 20:25:00,
2013-04-30 16:30:00,65.4,58.0,30.11,NW,325,2.0,3.0,77,0.00,,,0.00,239,Wunderground v.1.15,2013-04-30 20:30:00,
2013-04-30 16:40:00,65.6,58.2,30.11,NE,44,3.0,3.0,77,0.00,,,0.00,214,Wunderground v.1.15,2013-04-30 20:40:00,
2013-04-30 16:45:00,65.5,58.1,30.12,NNE,18,3.0,3.0,77,0.00,,,0.00,299,Wunderground v.1.15,2013-04-30 20:45:00,
2013-04-30 16:50:00,65.7,58.3,30.12,North,360,4.0,4.0,77,0.00,,,0.00,316,Wunderground v.1.15,2013-04-30 20:50:00,
2013-04-30 16:55:00,66.0,57.8,30.12,NNW,331,3.0,4.0,75,0.00,,,0.00,279,Wunderground v.1.15,2013-04-30 20:55:00,
2013-04-30 17:00:00,65.8,58.4,30.12,North,350,3.0,3.0,77,0.00,,,0.00,218,Wunderground v.1.15,2013-04-30 21:00:00,
2013-04-30 17:10:00,65.4,58.0,30.12,NNW,343,2.0,2.0,77,0.00,,,0.00,311,Wunderground v.1.15,2013-04-30 21:10:00,
2013-04-30 17:15:00,65.4,58.0,30.13,NW,315,3.0,3.0,77,0.00,,,0.00,271,Wunderground v.1.15,2013-04-30 21:15:00,
2013-04-30 17:20:00,66.0,58.6,30.12,NW,324,2.0,4.0,77,0.00,,,0.00,318,Wunderground v.1.15,2013-04-30 21:20:00,
2013-04-30 17:25:00,66.0,58.2,30.13,North,350,2.0,6.0,76,0.00,,,0.00,294,Wunderground v.1.15,2013-04-30 21:25:00,
2013-04-30 17:30:00,65.9,58.5,30.13,North,355,3.0,3.0,77,0.00,,,0.00,285,Wunderground v.1.15,2013-04-30 21:30:00,
2013-04-30 17:40:00,65.7,58.3,30.12,NNE,26,3.0,5.0,77,0.00,,,0.00,278,Wunderground v.1.15,2013-04-30 21:40:00,
2013-04-30 17:45:00,65.9,58.5,30.13,NNE,12,3.0,5.0,77,0.00,,,0.00,455,Wunderground v.1.15,2013-04-30 21:45:00,
2013-04-30 17:50:00,65.7,58.3,30.13,NNW,336,2.0,2.0,77,0.00,,,0.00,181,Wunderground v.1.15,2013-04-30 21:50:00,
2013-04-30 17:55:00,65.4,58.4,30.13,North,11,2.0,2.0,78,0.00,,,0.00,149,Wunderground v.1.15,2013-04-30 21:55:00,
2013-04-30 18:05:00,65.2,58.5,30.12,NNW,342,2.0,4.0,79,0.00,,,0.00,146,Wunderground v.1.15,2013-04-30 22:05:00,
2013-04-30 18:10:00,65.2,58.5,30.12,NNW,347,2.0,2.0,79,0.00,,,0.00,121,Wunderground v.1.15,2013-04-30 22:10:00,
2013-04-30 18:15:00,65.2,58.5,30.13,NNW,338,3.0,3.0,79,0.00,,,0.00,116,Wunderground v.1.15,2013-04-30 22:15:00,
2013-04-30 18:20:00,65.3,58.6,30.13,NNW,348,3.0,3.0,79,0.00,,,0.00,139,Wunderground v.1.15,2013-04-30 22:20:00,
2013-04-30 18:30:00,65.2,58.5,30.12,North,351,2.0,2.0,79,0.00,,,0.00,86,Wunderground v.1.15,2013-04-30 22:30:00,
2013-04-30 18:35:00,65.2,58.5,30.12,NNW,348,2.0,5.0,79,0.00,,,0.00,83,Wunderground v.1.15,2013-04-30 22:35:00,
2013-04-30 18:40:00,65.1,58.4,30.12,NNW,336,2.0,3.0,79,0.00,,,0.00,81,Wunderground v.1.15,2013-04-30 22:40:00,
2013-04-30 18:45:00,65.0,58.7,30.12,NW,322,2.0,3.0,80,0.00,,,0.00,76,Wunderground v.1.15,2013-04-30 22:45:00,
2013-04-30 18:50:00,64.9,58.6,30.12,NNW,346,1.0,1.0,80,0.00,,,0.00,46,Wunderground v.1.15,2013-04-30 22:50:00,
2013-04-30 19:00:00,64.8,58.8,30.13,NNW,348,1.0,2.0,81,0.00,,,0.00,54,Wunderground v.1.15,2013-04-30 23:00:00,
2013-04-30 19:05:00,64.6,58.6,30.13,NNW,348,2.0,2.0,81,0.00,,,0.00,54,Wunderground v.1.15,2013-04-30 23:05:00,
2013-04-30 19:10:00,64.5,58.9,30.14,NNW,348,1.0,1.0,82,0.00,,,0.00,54,Wunderground v.1.15,2013-04-30 23:10:00,
2013-04-30 19:15:00,64.5,59.2,30.14,NNW,348,0.0,1.0,83,0.00,,,0.00,100,Wunderground v.1.15,2013-04-30 23:15:00,
2013-04-30 19:20:00,64.4,58.8,30.14,NNW,348,1.0,1.0,82,0.00,,,0.00,51,Wunderground v.1.15,2013-04-30 23:20:00,
2013-04-30 19:30:00,64.3,59.4,30.14,NNW,348,0.0,0.0,84,0.00,,,0.00,25,Wunderground v.1.15,2013-04-30 23:30:00,
2013-04-30 19:35:00,64.2,59.6,30.14,NNW,348,0.0,0.0,85,0.00,,,0.00,14,Wunderground v.1.15,2013-04-30 23:35:00,
2013-04-30 19:40:00,64.1,59.5,30.14,NNW,348,0.0,0.0,85,0.00,,,0.00,11,Wunderground v.1.15,2013-04-30 23:40:00,
2013-04-30 19:45:00,63.9,59.6,30.15,NNW,348,0.0,0.0,86,0.00,,,0.00,7,Wunderground v.1.15,2013-04-30 23:45:00,
2013-04-30 19:50:00,63.7,59.4,30.15,NNW,348,0.0,0.0,86,0.00,,,0.00,5,Wunderground v.1.15,2013-04-30 23:50:00,
2013-04-30 20:00:00,63.1,59.2,30.15,NNW,348,0.0,0.0,87,0.00,,,0.00,0,Wunderground v.1.15,2013-05-01 00:00:00,
2013-04-30 20:05:00,63.0,59.4,30.15,NNW,348,0.0,0.0,88,0.00,,,0.00,0,Wunderground v.1.15,2013-05-01 00:05:00,
2013-04-30 20:10:00,62.8,59.2,30.16,NNW,348,0.0,0.0,88,0.00,,,0.00,0,Wunderground v.1.15,2013-05-01 00:10:00,
2013-04-30 20:20:00,62.7,58.8,30.16,NE,34,1.0,1.0,87,0.00,,,0.00,0,Wunderground v.1.15,2013-05-01 00:20:00,
2013-04-30 20:25:00,62.7,58.8,30.16,NNW,336,1.0,1.0,87,0.00,,,0.00,0,Wunderground v.1.15,2013-05-01 00:25:00,
2013-04-30 20:30:00,62.7,58.8,30.16,NNW,336,1.0,1.0,87,0.00,,,0.00,0,Wunderground v.1.15,2013-05-01 00:30:00,
2013-04-30 20:35:00,62.7,59.1,30.17,NNW,336,0.0,1.0,88,0.00,,,0.00,0,Wunderground v.1.15,2013-05-01 00:35:00,
2013-04-30 20:45:00,62.4,59.1,30.17,NNW,336,0.0,0.0,89,0.00,,,0.00,0,Wunderground v.1.15,2013-05-01 00:45:00,
2013-04-30 20:50:00,62.2,58.9,30.17,NNW,336,0.0,0.0,89,0.00,,,0.00,0,Wunderground v.1.15,2013-05-01 00:50:00,
2013-04-30 20:55:00,62.1,58.8,30.17,NNW,336,0.0,0.0,89,0.00,,,0.00,0,Wunderground v.1.15,2013-05-01 00:55:00,
2013-04-30 21:05:00,62.0,58.4,30.17,NNW,343,1.0,4.0,88,0.00,,,0.00,0,Wunderground v.1.15,2013-05-01 01:05:00,
2013-04-30 21:10:00,62.0,58.1,30.17,NNW,335,1.0,1.0,87,0.00,,,0.00,0,Wunderground v.1.15,2013-05-01 01:10:00,
2013-04-30 21:15:00,62.0,58.1,30.18,NNW,343,1.0,1.0,87,0.00,,,0.00,0,Wunderground v.1.15,2013-05-01 01:15:00,
2013-04-30 21:20:00,61.9,58.0,30.18,North,360,1.0,3.0,87,0.00,,,0.00,0,Wunderground v.1.15,2013-05-01 01:20:00,
2013-04-30 21:30:00,61.8,57.9,30.18,NNE,18,1.0,1.0,87,0.00,,,0.00,0,Wunderground v.1.15,2013-05-01 01:30:00,
2013-04-30 21:35:00,61.7,57.8,30.18,North,355,1.0,1.0,87,0.00,,,0.00,0,Wunderground v.1.15,2013-05-01 01:35:00,
2013-04-30 21:40:00,61.6,57.7,30.18,North,349,1.0,1.0,87,0.00,,,0.00,0,Wunderground v.1.15,2013-05-01 01:40:00,
2013-04-30 21:45:00,61.4,57.5,30.18,North,355,1.0,2.0,87,0.00,,,0.00,0,Wunderground v.1.15,2013-05-01 01:45:00,
2013-04-30 21:55:00,60.9,57.3,30.19,NNW,333,0.0,0.0,88,0.00,,,0.00,0,Wunderground v.1.15,2013-05-01 01:55:00,
2013-04-30 22:00:00,60.8,57.2,30.18,NNW,335,0.0,0.0,88,0.00,,,0.00,0,Wunderground v.1.15,2013-05-01 02:00:00,
2013-04-30 22:05:00,60.7,57.4,30.19,NNW,346,0.0,0.0,89,0.00,,,0.00,0,Wunderground v.1.15,2013-05-01 02:05:00,
2013-04-30 22:10:00,60.6,57.3,30.19,NW,323,0.0,0.0,89,0.00,,,0.00,0,Wunderground v.1.15,2013-05-01 02:10:00,
2013-04-30 22:15:00,60.5,57.2,30.18,NNW,331,0.0,0.0,89,0.00,,,0.00,0,Wunderground v.1.15,2013-05-01 02:15:00,
2013-04-30 22:25:00,60.4,57.1,30.18,NNW,333,0.0,4.0,89,0.00,,,0.00,0,Wunderground v.1.15,2013-05-01 02:25:00,
2013-04-30 22:30:00,60.3,57.4,30.18,North,355,1.0,1.0,90,0.00,,,0.00,0,Wunderground v.1.15,2013-05-01 02:30:00,
2013-04-30 22:35:00,60.1,57.2,30.18,NNW,335,1.0,1.0,90,0.00,,,0.00,0,Wunderground v.1.15,2013-05-01 02:35:00,
2013-04-30 22:40:00,59.9,57.0,30.18,NW,323,2.0,2.0,90,0.00,,,0.00,0,Wunderground v.1.15,2013-05-01 02:40:00,
2013-04-30 22:45:00,59.8,56.9,30.18,NW,326,2.0,2.0,90,0.00,,,0.00,0,Wunderground v.1.15,2013-05-01 02:45:00,
2013-04-30 22:55:00,59.5,56.6,30.19,WNW,292,2.0,2.0,90,0.00,,,0.00,0,Wunderground v.1.15,2013-05-01 02:55:00,
2013-04-30 23:00:00,59.4,56.5,30.19,NNW,339,2.0,2.0,90,0.00,,,0.00,0,Wunderground v.1.15,2013-05-01 03:00:00,
2013-04-30 23:05:00,59.3,56.4,30.19,NW,323,1.0,2.0,90,0.00,,,0.00,0,Wunderground v.1.15,2013-05-01 03:05:00,
2013-04-30 23:10:00,59.2,56.3,30.19,NNW,340,0.0,0.0,90,0.00,,,0.00,0,Wunderground v.1.15,2013-05-01 03:10:00,
2013-04-30 23:15:00,59.1,56.2,30.19,NNW,340,1.0,3.0,90,0.00,,,0.00,0,Wunderground v.1.15,2013-05-01 03:15:00,
2013-04-30 23:25:00,59.0,56.1,30.19,NNW,343,2.0,6.0,90,0.00,,,0.00,0,Wunderground v.1.15,2013-05-01 03:25:00,
2013-04-30 23:30:00,58.9,56.3,30.19,North,10,1.0,1.0,91,0.00,,,0.00,0,Wunderground v.1.15,2013-05-01 03:30:00,
2013-04-30 23:35:00,58.8,56.2,30.19,North,355,0.0,1.0,91,0.00,,,0.00,0,Wunderground v.1.15,2013-05-01 03:35:00,
2013-04-30 23:40:00,58.6,56.0,30.19,NNW,346,0.0,0.0,91,0.00,,,0.00,0,Wunderground v.1.15,2013-05-01 03:40:00,
2013-04-30 23:45:00,58.5,56.2,30.19,NW,325,0.0,6.0,92,0.00,,,0.00,0,Wunderground v.1.15,2013-05-01 03:45:00,
2013-04-30 23:55:00,58.4,56.1,30.19,NNW,340,1.0,1.0,92,0.00,,,0.00,0,Wunderground v.1.15,2013-05-01 03:55:00,